Time;durP1;ratioP1;P1;durP2;ratioP2;P2;SDS_P1;SDS_P2;PMS_P1;PMS_P2;Temp;Humidity;BMP_temperature;BMP_pressure;BME280_temperature;BME280_humidity;BME280_pressure;Samples;Min_cycle;Max_cycle;Signal;HPM_P1;HPM_P2
2023/03/16 00:02:14;;;;;;;6.83;6.30;;;;;;;;;;4993186;28;20204;-83
2023/03/16 00:04:46;;;;;;;6.00;5.40;;;;;;;;;;4993377;28;20268;-83
2023/03/16 00:07:15;;;;;;;6.83;6.23;;;;;;;;;;4992898;28;20224;-83
2023/03/16 00:09:43;;;;;;;7.40;6.80;;;;;;;;;;4993053;28;20196;-83
2023/03/16 00:12:14;;;;;;;5.47;5.03;;;;;;;;;;4992998;28;20271;-83
2023/03/16 00:14:43;;;;;;;6.80;5.63;;;;;;;;;;4992647;28;20206;-83
2023/03/16 00:17:17;;;;;;;6.47;4.83;;;;;;;;;;4992683;28;20188;-82
2023/03/16 00:19:47;;;;;;;5.93;5.43;;;;;;;;;;4993060;28;20207;-82
2023/03/16 00:22:16;;;;;;;6.90;6.30;;;;;;;;;;4993170;28;20204;-82
2023/03/16 00:24:44;;;;;;;7.70;6.93;;;;;;;;;;4992927;28;20208;-82
2023/03/16 00:27:14;;;;;;;5.73;5.23;;;;;;;;;;4992757;28;20315;-82
2023/03/16 00:29:46;;;;;;;5.87;5.13;;;;;;;;;;4993419;28;20208;-82
2023/03/16 00:32:17;;;;;;;6.67;6.07;;;;;;;;;;4992816;28;20298;-82
2023/03/16 00:34:46;;;;;;;7.07;6.37;;;;;;;;;;4992847;28;20236;-82
2023/03/16 00:37:16;;;;;;;6.47;5.87;;;;;;;;;;4992786;28;20274;-83
2023/03/16 00:39:45;;;;;;;4.53;4.13;;;;;;;;;;4992983;28;20196;-82
2023/03/16 00:42:15;;;;;;;7.47;5.90;;;;;;;;;;4992787;28;20262;-82
2023/03/16 00:44:43;;;;;;;5.70;3.97;;;;;;;;;;4992839;28;20204;-82
2023/03/16 00:47:14;;;;;;;7.03;6.33;;;;;;;;;;4992700;28;20319;-83
2023/03/16 00:49:44;;;;;;;6.57;5.90;;;;;;;;;;4992647;28;20208;-83
2023/03/16 00:52:14;;;;;;;8.17;6.10;;;;;;;;;;4992420;28;20236;-83
2023/03/16 00:54:43;;;;;;;6.77;6.17;;;;;;;;;;4993110;28;20218;-83
2023/03/16 00:57:12;;;;;;;7.37;6.70;;;;;;;;;;4992875;28;20203;-83
2023/03/16 00:59:41;;;;;;;5.77;5.17;;;;;;;;;;4992821;28;20212;-83
2023/03/16 01:02:10;;;;;;;7.00;6.40;;;;;;;;;;4992431;28;20192;-83
2023/03/16 01:04:40;;;;;;;7.67;6.93;;;;;;;;;;4992740;28;20255;-83
2023/03/16 01:07:11;;;;;;;7.67;7.07;;;;;;;;;;4992221;28;20228;-83
2023/03/16 01:09:39;;;;;;;6.77;6.17;;;;;;;;;;4992641;28;20324;-83
2023/03/16 01:12:10;;;;;;;7.53;6.83;;;;;;;;;;4994298;28;20239;-83
2023/03/16 01:14:38;;;;;;;8.00;7.20;;;;;;;;;;4996392;28;20230;-83
2023/03/16 01:17:08;;;;;;;8.17;7.23;;;;;;;;;;4996172;28;20255;-84
2023/03/16 01:19:37;;;;;;;8.07;7.27;;;;;;;;;;4996217;28;20215;-84
2023/03/16 01:22:05;;;;;;;8.00;7.20;;;;;;;;;;4996400;28;20235;-84
2023/03/16 01:24:35;;;;;;;8.27;7.47;;;;;;;;;;4996046;28;20295;-84
2023/03/16 01:27:04;;;;;;;8.67;7.83;;;;;;;;;;4995809;28;20239;-84
2023/03/16 01:29:33;;;;;;;8.10;7.30;;;;;;;;;;4996164;28;20224;-83
2023/03/16 01:32:02;;;;;;;7.80;7.00;;;;;;;;;;4995905;28;20200;-83
2023/03/16 01:34:31;;;;;;;8.43;7.63;;;;;;;;;;4995781;28;20200;-83
2023/03/16 01:36:59;;;;;;;8.30;7.60;;;;;;;;;;4995785;28;20264;-83
2023/03/16 01:39:28;;;;;;;6.63;5.93;;;;;;;;;;4996008;28;20212;-82
2023/03/16 01:41:57;;;;;;;8.47;7.67;;;;;;;;;;4995677;28;20308;-82
2023/03/16 01:44:29;;;;;;;8.07;7.47;;;;;;;;;;4995758;28;20295;-82
2023/03/16 01:46:58;;;;;;;7.60;6.87;;;;;;;;;;4995943;28;20204;-82
2023/03/16 01:49:28;;;;;;;8.40;6.87;;;;;;;;;;4995551;28;20226;-82
2023/03/16 01:51:58;;;;;;;8.00;7.20;;;;;;;;;;4995741;28;20208;-82
2023/03/16 01:54:28;;;;;;;9.57;8.03;;;;;;;;;;4995871;28;20274;-82
2023/03/16 01:57:00;;;;;;;9.17;6.83;;;;;;;;;;4995813;28;20204;-82
2023/03/16 01:59:31;;;;;;;10.23;8.50;;;;;;;;;;4995852;28;20295;-82
2023/03/16 02:01:59;;;;;;;11.07;10.17;;;;;;;;;;4995276;28;20208;-84
2023/03/16 02:04:32;;;;;;;9.23;8.33;;;;;;;;;;4995243;28;20204;-84
2023/03/16 02:07:01;;;;;;;10.27;9.47;;;;;;;;;;4995244;28;20236;-84
2023/03/16 02:09:30;;;;;;;9.60;8.67;;;;;;;;;;4995178;28;20274;-84
2023/03/16 02:12:00;;;;;;;8.47;7.77;;;;;;;;;;4994874;28;20280;-84
2023/03/16 02:14:28;;;;;;;9.17;8.00;;;;;;;;;;4995145;28;20340;-84
2023/03/16 02:16:57;;;;;;;8.77;7.97;;;;;;;;;;4994960;28;20300;-84
2023/03/16 02:19:35;;;;;;;9.60;8.53;;;;;;;;;;4995245;28;20204;-84
2023/03/16 02:22:05;;;;;;;9.30;8.23;;;;;;;;;;4995142;28;20319;-84
2023/03/16 02:24:33;;;;;;;8.07;7.10;;;;;;;;;;4993991;28;20214;-84
2023/03/16 02:27:04;;;;;;;6.93;6.23;;;;;;;;;;4995031;28;20258;-84
2023/03/16 02:29:53;;;;;;;9.30;7.90;;;;;;;;;;4994854;28;20239;-84
2023/03/16 02:32:23;;;;;;;8.23;7.53;;;;;;;;;;4994789;28;20212;-84
2023/03/16 02:34:51;;;;;;;6.77;6.07;;;;;;;;;;4994995;28;20205;-84
2023/03/16 02:37:20;;;;;;;9.60;8.70;;;;;;;;;;4994703;28;20295;-84
2023/03/16 02:39:49;;;;;;;6.50;5.90;;;;;;;;;;4994803;28;20287;-84
2023/03/16 02:42:20;;;;;;;7.33;6.63;;;;;;;;;;4994797;28;20207;-84
2023/03/16 02:44:54;;;;;;;10.17;8.83;;;;;;;;;;4994482;28;20207;-84
2023/03/16 02:47:25;;;;;;;9.33;8.00;;;;;;;;;;4994456;28;20203;-84
2023/03/16 02:49:54;;;;;;;7.90;7.07;;;;;;;;;;4994057;28;20220;-84
2023/03/16 02:52:22;;;;;;;10.10;9.10;;;;;;;;;;4994025;28;20201;-84
2023/03/16 02:54:51;;;;;;;10.37;8.93;;;;;;;;;;4994427;28;20238;-84
2023/03/16 02:57:19;;;;;;;10.67;9.57;;;;;;;;;;4994376;28;20200;-84
2023/03/16 02:59:48;;;;;;;7.60;6.90;;;;;;;;;;4994074;28;20207;-84
2023/03/16 03:02:18;;;;;;;9.13;8.30;;;;;;;;;;4993911;28;20232;-84
2023/03/16 03:04:46;;;;;;;10.07;7.80;;;;;;;;;;4994087;28;20291;-84
2023/03/16 03:07:15;;;;;;;11.23;8.53;;;;;;;;;;4993638;28;20200;-84
2023/03/16 03:09:43;;;;;;;9.77;8.40;;;;;;;;;;4993917;28;20248;-84
2023/03/16 03:12:12;;;;;;;8.30;7.50;;;;;;;;;;4993837;28;20268;-84
2023/03/16 03:14:41;;;;;;;9.27;8.40;;;;;;;;;;4994062;28;20205;-84
2023/03/16 03:17:12;;;;;;;9.30;8.40;;;;;;;;;;4994041;28;20228;-84
2023/03/16 03:19:42;;;;;;;11.00;9.80;;;;;;;;;;4994027;28;20228;-84
2023/03/16 03:22:10;;;;;;;10.00;9.10;;;;;;;;;;4993929;28;20192;-84
2023/03/16 03:24:39;;;;;;;16.23;9.20;;;;;;;;;;4994083;28;20208;-84
2023/03/16 03:27:07;;;;;;;9.17;7.50;;;;;;;;;;4993276;28;20211;-85
2023/03/16 03:29:35;;;;;;;8.93;8.03;;;;;;;;;;4993722;28;20274;-84
2023/03/16 03:32:05;;;;;;;8.60;6.87;;;;;;;;;;4993695;28;20204;-84
2023/03/16 03:34:33;;;;;;;9.90;8.70;;;;;;;;;;4993250;28;20208;-84
2023/03/16 03:37:03;;;;;;;11.90;10.53;;;;;;;;;;4993354;28;20215;-84
2023/03/16 03:39:31;;;;;;;9.77;8.77;;;;;;;;;;4993490;28;20200;-84
2023/03/16 03:42:01;;;;;;;11.57;10.40;;;;;;;;;;4993464;28;20207;-84
2023/03/16 03:44:33;;;;;;;11.70;10.20;;;;;;;;;;4993453;28;20258;-84
2023/03/16 03:47:01;;;;;;;10.10;9.20;;;;;;;;;;4993334;28;20243;-84
2023/03/16 03:49:30;;;;;;;11.57;10.57;;;;;;;;;;4993155;28;20576;-84
2023/03/16 03:52:00;;;;;;;12.17;10.87;;;;;;;;;;4992963;28;20231;-84
2023/03/16 03:54:30;;;;;;;11.47;9.70;;;;;;;;;;4993278;28;20246;-84
2023/03/16 03:56:59;;;;;;;9.60;8.70;;;;;;;;;;4993350;28;20247;-84
2023/03/16 03:59:27;;;;;;;10.17;9.20;;;;;;;;;;4993011;28;20192;-84
2023/03/16 04:01:55;;;;;;;11.67;10.57;;;;;;;;;;4993184;28;20295;-84
2023/03/16 04:04:24;;;;;;;9.53;8.57;;;;;;;;;;4992986;28;20200;-84
2023/03/16 04:06:52;;;;;;;11.13;9.47;;;;;;;;;;4992730;28;20284;-84
2023/03/16 04:09:21;;;;;;;12.83;10.33;;;;;;;;;;4993106;28;20216;-84
2023/03/16 04:11:50;;;;;;;10.63;9.53;;;;;;;;;;4992684;28;20334;-84
2023/03/16 04:14:19;;;;;;;8.97;8.17;;;;;;;;;;4992795;28;20201;-84
2023/03/16 04:16:47;;;;;;;9.77;8.37;;;;;;;;;;4992731;28;20215;-84
2023/03/16 04:19:16;;;;;;;12.87;10.27;;;;;;;;;;4992914;28;20208;-84
2023/03/16 04:21:44;;;;;;;13.37;10.57;;;;;;;;;;4993012;28;20265;-84
2023/03/16 04:24:13;;;;;;;11.77;10.67;;;;;;;;;;4992941;28;20208;-84
2023/03/16 04:26:43;;;;;;;8.67;7.70;;;;;;;;;;4992886;28;20231;-84
2023/03/16 04:29:16;;;;;;;11.17;10.17;;;;;;;;;;4992891;28;20235;-84
2023/03/16 04:31:46;;;;;;;8.87;8.07;;;;;;;;;;4992894;28;20267;-84
2023/03/16 04:34:14;;;;;;;10.27;8.40;;;;;;;;;;4992628;28;20239;-84
2023/03/16 04:36:43;;;;;;;10.07;9.07;;;;;;;;;;4992778;28;20209;-84
2023/03/16 04:39:11;;;;;;;10.47;9.57;;;;;;;;;;4992551;28;20211;-84
2023/03/16 04:41:39;;;;;;;8.53;7.73;;;;;;;;;;4992767;28;20261;-84
2023/03/16 04:44:08;;;;;;;10.43;9.47;;;;;;;;;;4992700;28;20232;-84
2023/03/16 04:46:37;;;;;;;11.63;10.53;;;;;;;;;;4994162;28;20204;-84
2023/03/16 04:49:08;;;;;;;9.70;8.77;;;;;;;;;;4996611;28;20207;-84
2023/03/16 04:51:39;;;;;;;9.07;8.17;;;;;;;;;;4996556;28;20303;-84
2023/03/16 04:54:07;;;;;;;13.13;10.73;;;;;;;;;;4996459;28;20275;-84
2023/03/16 04:56:36;;;;;;;11.10;9.07;;;;;;;;;;4997147;28;20267;-84
2023/03/16 04:59:04;;;;;;;11.00;8.07;;;;;;;;;;4996459;28;20267;-84
2023/03/16 05:01:32;;;;;;;11.83;9.90;;;;;;;;;;4996830;28;20319;-84
2023/03/16 05:04:02;;;;;;;11.20;10.10;;;;;;;;;;4996404;28;20206;-84
2023/03/16 05:06:31;;;;;;;12.63;11.17;;;;;;;;;;4996205;28;20259;-84
2023/03/16 05:09:00;;;;;;;11.53;10.53;;;;;;;;;;4996123;28;20224;-84
2023/03/16 05:11:29;;;;;;;13.17;11.30;;;;;;;;;;4996001;28;20278;-84
2023/03/16 05:13:57;;;;;;;12.33;10.73;;;;;;;;;;4995935;28;20223;-84
2023/03/16 05:16:26;;;;;;;11.10;9.53;;;;;;;;;;4996441;28;20204;-84
2023/03/16 05:18:54;;;;;;;10.90;9.73;;;;;;;;;;4995882;28;20200;-84
2023/03/16 05:21:24;;;;;;;10.30;9.30;;;;;;;;;;4995709;28;20199;-84
2023/03/16 05:23:52;;;;;;;11.37;10.10;;;;;;;;;;4995990;28;20208;-84
2023/03/16 05:26:21;;;;;;;10.80;9.80;;;;;;;;;;4995935;28;20208;-84
2023/03/16 05:28:49;;;;;;;13.63;9.53;;;;;;;;;;4996079;28;20268;-84
2023/03/16 05:31:17;;;;;;;7.70;6.47;;;;;;;;;;4996024;28;20251;-84
2023/03/16 05:33:47;;;;;;;8.30;7.37;;;;;;;;;;4995815;28;20236;-84
2023/03/16 05:36:16;;;;;;;8.10;7.37;;;;;;;;;;4995670;28;20258;-84
2023/03/16 05:38:46;;;;;;;13.53;10.00;;;;;;;;;;4995606;28;20204;-84
2023/03/16 05:41:14;;;;;;;10.50;9.47;;;;;;;;;;4995304;28;20240;-84
2023/03/16 05:43:42;;;;;;;11.67;10.47;;;;;;;;;;4995625;28;20236;-84
2023/03/16 05:46:11;;;;;;;8.40;7.63;;;;;;;;;;4995719;28;20263;-84
2023/03/16 05:48:40;;;;;;;10.80;8.73;;;;;;;;;;4995451;28;20204;-84
2023/03/16 05:51:08;;;;;;;10.13;9.13;;;;;;;;;;4995509;28;20306;-84
2023/03/16 05:53:36;;;;;;;9.30;8.40;;;;;;;;;;4995030;28;20275;-82
2023/03/16 05:56:07;;;;;;;9.10;8.20;;;;;;;;;;4995110;28;20205;-82
2023/03/16 05:58:35;;;;;;;11.43;9.10;;;;;;;;;;4995659;28;20263;-83
2023/03/16 06:01:04;;;;;;;9.03;7.87;;;;;;;;;;4994847;28;20192;-82
2023/03/16 06:03:33;;;;;;;10.00;8.27;;;;;;;;;;4995314;28;20196;-82
2023/03/16 06:06:02;;;;;;;11.43;8.53;;;;;;;;;;4995896;28;20246;-83
2023/03/16 06:08:30;;;;;;;8.97;8.13;;;;;;;;;;4995148;28;20271;-82
2023/03/16 06:10:59;;;;;;;10.70;9.90;;;;;;;;;;4994692;28;20243;-82
2023/03/16 06:13:28;;;;;;;9.30;8.37;;;;;;;;;;4994746;28;20193;-82
2023/03/16 06:15:57;;;;;;;9.17;8.27;;;;;;;;;;4994910;28;20208;-82
2023/03/16 06:18:25;;;;;;;6.57;5.90;;;;;;;;;;4995082;28;20204;-82
2023/03/16 06:20:54;;;;;;;8.43;7.17;;;;;;;;;;4995067;28;20294;-82
2023/03/16 06:23:22;;;;;;;8.97;8.07;;;;;;;;;;4994647;28;20228;-82
2023/03/16 06:25:53;;;;;;;8.37;7.03;;;;;;;;;;4994704;28;20232;-82
2023/03/16 06:28:21;;;;;;;9.43;8.37;;;;;;;;;;4994451;28;20192;-83
2023/03/16 06:30:53;;;;;;;8.60;7.20;;;;;;;;;;4994489;28;20248;-82
2023/03/16 06:33:22;;;;;;;9.53;8.07;;;;;;;;;;4994640;28;20193;-82
2023/03/16 06:35:51;;;;;;;10.07;8.20;;;;;;;;;;4994497;28;20196;-82
2023/03/16 06:38:20;;;;;;;8.07;7.27;;;;;;;;;;4994533;28;20203;-82
2023/03/16 06:40:51;;;;;;;8.87;6.57;;;;;;;;;;4994664;28;20224;-82
2023/03/16 06:43:20;;;;;;;7.23;6.50;;;;;;;;;;4994443;28;20204;-82
2023/03/16 06:45:48;;;;;;;6.43;5.83;;;;;;;;;;4994438;28;20232;-82
2023/03/16 06:48:18;;;;;;;6.37;5.60;;;;;;;;;;4994281;28;20201;-83
2023/03/16 06:50:47;;;;;;;6.40;5.50;;;;;;;;;;4994048;28;20248;-81
2023/03/16 06:53:15;;;;;;;6.23;5.30;;;;;;;;;;4994251;28;20214;-82
2023/03/16 06:55:43;;;;;;;5.53;5.03;;;;;;;;;;4994207;28;20205;-82
2023/03/16 06:58:12;;;;;;;5.23;4.83;;;;;;;;;;4993925;28;20216;-82
2023/03/16 07:00:40;;;;;;;5.40;4.90;;;;;;;;;;4994279;28;20291;-82
2023/03/16 07:03:09;;;;;;;5.77;5.10;;;;;;;;;;4993921;28;20208;-82
2023/03/16 07:05:39;;;;;;;8.77;4.77;;;;;;;;;;4994092;28;20255;-82
2023/03/16 07:08:08;;;;;;;5.93;5.37;;;;;;;;;;4994285;28;20204;-81
2023/03/16 07:10:36;;;;;;;5.03;4.63;;;;;;;;;;4993045;28;20212;-82
2023/03/16 07:13:04;;;;;;;5.53;4.77;;;;;;;;;;4993856;28;20232;-83
2023/03/16 07:15:33;;;;;;;6.77;6.00;;;;;;;;;;4994114;28;20287;-82
2023/03/16 07:18:01;;;;;;;5.43;4.10;;;;;;;;;;4993569;28;20204;-83
2023/03/16 07:20:31;;;;;;;3.47;2.83;;;;;;;;;;4993672;28;20294;-83
2023/03/16 07:23:01;;;;;;;6.23;5.40;;;;;;;;;;4993362;28;20212;-83
2023/03/16 07:25:30;;;;;;;6.87;6.03;;;;;;;;;;4993703;28;20243;-83
2023/03/16 07:27:59;;;;;;;7.37;5.00;;;;;;;;;;4993309;28;20201;-82
2023/03/16 07:30:27;;;;;;;7.30;6.27;;;;;;;;;;4993327;28;20228;-82
2023/03/16 07:32:56;;;;;;;6.03;5.53;;;;;;;;;;4993579;28;20215;-83
2023/03/16 07:35:25;;;;;;;5.83;5.07;;;;;;;;;;4993563;28;20208;-82
2023/03/16 07:37:54;;;;;;;6.13;5.40;;;;;;;;;;4993404;28;20295;-82
2023/03/16 07:40:24;;;;;;;6.00;5.50;;;;;;;;;;4993081;28;20196;-82
2023/03/16 07:42:52;;;;;;;10.97;5.97;;;;;;;;;;4993289;28;20200;-82
2023/03/16 07:45:21;;;;;;;7.77;6.97;;;;;;;;;;4993325;28;20200;-82
2023/03/16 07:47:50;;;;;;;7.83;4.80;;;;;;;;;;4993326;28;20205;-82
2023/03/16 07:50:18;;;;;;;6.70;5.30;;;;;;;;;;4993559;28;20378;-85
2023/03/16 07:52:46;;;;;;;6.37;5.77;;;;;;;;;;4993031;28;20239;-84
2023/03/16 07:55:15;;;;;;;7.40;6.17;;;;;;;;;;4992832;28;20203;-84
2023/03/16 07:57:47;;;;;;;9.80;6.43;;;;;;;;;;4993289;28;20208;-84
2023/03/16 08:00:16;;;;;;;7.47;6.77;;;;;;;;;;4993308;28;20211;-84
2023/03/16 08:02:44;;;;;;;6.70;6.10;;;;;;;;;;4993105;28;20212;-84
2023/03/16 08:05:14;;;;;;;9.07;6.37;;;;;;;;;;4992365;28;20236;-84
2023/03/16 08:07:43;;;;;;;6.23;5.63;;;;;;;;;;4992845;28;20471;-84
2023/03/16 08:10:13;;;;;;;6.03;5.43;;;;;;;;;;4992859;28;20208;-84
2023/03/16 08:12:41;;;;;;;8.70;6.73;;;;;;;;;;4992382;28;20228;-84
2023/03/16 08:15:12;;;;;;;6.73;6.17;;;;;;;;;;4992686;28;20206;-84
2023/03/16 08:17:41;;;;;;;3.67;3.37;;;;;;;;;;4992799;28;20212;-84
2023/03/16 08:20:13;;;;;;;5.20;4.63;;;;;;;;;;4992240;28;20247;-84
2023/03/16 08:22:45;;;;;;;8.13;3.53;;;;;;;;;;4991863;28;20205;-84
2023/03/16 08:25:15;;;;;;;5.37;4.87;;;;;;;;;;4992689;28;20298;-84
2023/03/16 08:27:43;;;;;;;8.27;4.83;;;;;;;;;;4992960;28;20204;-84
2023/03/16 08:30:14;;;;;;;3.87;2.73;;;;;;;;;;4992645;28;20303;-84
2023/03/16 08:32:43;;;;;;;6.03;5.23;;;;;;;;;;4992545;28;20248;-84
2023/03/16 08:35:15;;;;;;;5.77;5.17;;;;;;;;;;4992673;28;20298;-84
2023/03/16 08:37:45;;;;;;;6.40;5.80;;;;;;;;;;4975223;28;20254;-84
2023/03/16 08:40:15;;;;;;;6.93;5.40;;;;;;;;;;4992565;28;20216;-84
2023/03/16 08:42:44;;;;;;;5.70;4.90;;;;;;;;;;4992112;28;20192;-84
2023/03/16 08:45:14;;;;;;;7.57;5.90;;;;;;;;;;4992094;28;20300;-84
2023/03/16 08:47:42;;;;;;;4.53;4.13;;;;;;;;;;4992429;28;20235;-84
2023/03/16 08:50:12;;;;;;;6.53;5.93;;;;;;;;;;4992264;28;20240;-84
2023/03/16 08:52:41;;;;;;;7.33;5.00;;;;;;;;;;4992264;28;20224;-84
2023/03/16 08:55:12;;;;;;;6.33;5.37;;;;;;;;;;4992323;28;20258;-84
2023/03/16 08:57:43;;;;;;;5.37;4.87;;;;;;;;;;4992088;28;20200;-84
2023/03/16 09:00:14;;;;;;;5.27;4.30;;;;;;;;;;4992402;28;20231;-84
2023/03/16 09:02:43;;;;;;;7.20;5.93;;;;;;;;;;4992272;28;20197;-85
2023/03/16 09:05:13;;;;;;;6.17;5.63;;;;;;;;;;4992156;28;20223;-85
2023/03/16 09:07:42;;;;;;;8.00;5.30;;;;;;;;;;4992137;28;20208;-85
2023/03/16 09:10:14;;;;;;;6.00;5.50;;;;;;;;;;4992405;28;20255;-85
2023/03/16 09:12:44;;;;;;;6.20;5.57;;;;;;;;;;4991818;28;20236;-84
2023/03/16 09:15:17;;;;;;;5.47;4.60;;;;;;;;;;4992147;28;20243;-84
2023/03/16 09:17:47;;;;;;;5.53;5.03;;;;;;;;;;4992492;28;20266;-84
2023/03/16 09:20:17;;;;;;;5.13;4.57;;;;;;;;;;4991964;28;20196;-84
2023/03/16 09:22:53;;;;;;;5.17;4.27;;;;;;;;;;4992496;28;20263;-84
2023/03/16 09:25:23;;;;;;;5.77;4.27;;;;;;;;;;4992072;28;20206;-84
2023/03/16 09:27:51;;;;;;;7.60;4.67;;;;;;;;;;4992072;28;20212;-84
2023/03/16 09:30:21;;;;;;;7.73;5.43;;;;;;;;;;4991656;28;20208;-84
2023/03/16 09:32:50;;;;;;;6.03;4.67;;;;;;;;;;4993167;28;20239;-84
2023/03/16 09:35:19;;;;;;;3.90;3.37;;;;;;;;;;4995788;28;20231;-84
2023/03/16 09:37:47;;;;;;;6.23;3.63;;;;;;;;;;4995494;28;20228;-84
2023/03/16 09:40:34;;;;;;;6.57;5.40;;;;;;;;;;4995485;28;20279;-84
2023/03/16 09:43:15;;;;;;;6.80;4.53;;;;;;;;;;4995692;28;20207;-84
2023/03/16 09:45:47;;;;;;;4.40;4.00;;;;;;;;;;4995304;28;20209;-84
2023/03/16 09:48:17;;;;;;;6.27;4.90;;;;;;;;;;4995487;28;20212;-84
2023/03/16 09:50:45;;;;;;;7.10;5.60;;;;;;;;;;4995460;28;20235;-84
2023/03/16 09:53:23;;;;;;;5.73;4.77;;;;;;;;;;4995014;28;20255;-84
2023/03/16 09:55:54;;;;;;;3.13;2.90;;;;;;;;;;4995684;28;20251;-84
2023/03/16 09:58:23;;;;;;;9.83;8.87;;;;;;;;;;4995274;28;20204;-84
2023/03/16 10:00:56;;;;;;;8.10;4.63;;;;;;;;;;4995367;28;20208;-84
2023/03/16 10:03:37;;;;;;;6.83;4.90;;;;;;;;;;4995393;28;20201;-84
2023/03/16 10:06:09;;;;;;;7.87;5.20;;;;;;;;;;4995184;28;20257;-84
2023/03/16 10:08:39;;;;;;;4.00;3.60;;;;;;;;;;4995223;28;20236;-84
2023/03/16 10:11:30;;;;;;;6.87;4.30;;;;;;;;;;4995101;28;20331;-83
2023/03/16 10:14:03;;;;;;;5.67;4.43;;;;;;;;;;4994966;28;20220;-83
2023/03/16 10:16:37;;;;;;;6.80;5.20;;;;;;;;;;4995495;28;20196;-82
2023/03/16 10:19:11;;;;;;;6.47;4.77;;;;;;;;;;4995079;28;20197;-83
2023/03/16 10:21:45;;;;;;;6.03;4.90;;;;;;;;;;4995649;28;20196;-82
2023/03/16 10:24:17;;;;;;;4.43;3.90;;;;;;;;;;4995163;28;20229;-83
2023/03/16 10:26:47;;;;;;;3.97;3.67;;;;;;;;;;4995070;28;20206;-83
2023/03/16 10:29:15;;;;;;;6.97;3.77;;;;;;;;;;4994924;28;20209;-83
2023/03/16 10:31:46;;;;;;;5.23;4.60;;;;;;;;;;4995176;28;20205;-82
2023/03/16 10:34:15;;;;;;;6.60;4.80;;;;;;;;;;4994880;28;20310;-84
2023/03/16 10:36:46;;;;;;;3.00;2.80;;;;;;;;;;4994493;28;20218;-84
2023/03/16 10:39:16;;;;;;;5.37;4.17;;;;;;;;;;4994354;28;20245;-84
2023/03/16 10:41:45;;;;;;;6.33;4.90;;;;;;;;;;4994565;28;20214;-84
2023/03/16 10:44:15;;;;;;;6.93;3.87;;;;;;;;;;4993983;28;20296;-83
2023/03/16 10:46:48;;;;;;;5.00;3.00;;;;;;;;;;4995065;28;20206;-84
2023/03/16 10:49:26;;;;;;;5.53;4.40;;;;;;;;;;4994833;28;20210;-83
2023/03/16 10:51:58;;;;;;;6.17;4.60;;;;;;;;;;4994729;28;20210;-83
2023/03/16 10:54:29;;;;;;;5.67;3.77;;;;;;;;;;4994623;28;20218;-84
2023/03/16 10:56:59;;;;;;;4.37;3.97;;;;;;;;;;4994319;28;20203;-84
2023/03/16 10:59:33;;;;;;;6.27;3.37;;;;;;;;;;4994549;28;20206;-84
2023/03/16 11:02:15;;;;;;;5.27;3.37;;;;;;;;;;4994441;28;20279;-84
2023/03/16 11:04:44;;;;;;;4.33;3.93;;;;;;;;;;4994412;28;20194;-83
2023/03/16 11:07:16;;;;;;;4.70;3.70;;;;;;;;;;4994097;28;20199;-83
2023/03/16 11:09:46;;;;;;;8.97;4.33;;;;;;;;;;4994528;28;20214;-83
2023/03/16 11:12:16;;;;;;;5.77;4.00;;;;;;;;;;4994062;28;20307;-83
2023/03/16 11:14:45;;;;;;;5.00;3.13;;;;;;;;;;4993979;28;20388;-84
2023/03/16 11:17:17;;;;;;;4.07;3.50;;;;;;;;;;4993644;28;20198;-84
2023/03/16 11:19:50;;;;;;;3.77;2.60;;;;;;;;;;4993971;28;20257;-84
2023/03/16 11:22:20;;;;;;;6.57;3.93;;;;;;;;;;4993824;28;20257;-84
2023/03/16 11:24:50;;;;;;;4.70;3.13;;;;;;;;;;4994066;28;20292;-84
2023/03/16 11:27:23;;;;;;;3.97;3.00;;;;;;;;;;4993774;28;20238;-84
2023/03/16 11:29:58;;;;;;;8.70;4.93;;;;;;;;;;4993876;28;20238;-84
2023/03/16 11:32:30;;;;;;;5.70;3.50;;;;;;;;;;4993449;28;20198;-84
2023/03/16 11:34:59;;;;;;;6.40;3.83;;;;;;;;;;4993216;28;20220;-83
2023/03/16 11:37:36;;;;;;;2.93;2.53;;;;;;;;;;4976189;28;20216;-84
2023/03/16 11:40:14;;;;;;;4.37;3.67;;;;;;;;;;4993201;28;20205;-84
2023/03/16 11:42:46;;;;;;;3.30;2.97;;;;;;;;;;4993821;28;20210;-84
2023/03/16 11:45:19;;;;;;;3.57;3.03;;;;;;;;;;4993317;28;20391;-83
2023/03/16 11:47:59;;;;;;;4.80;3.13;;;;;;;;;;4993344;28;20215;-83
2023/03/16 11:50:34;;;;;;;4.20;3.03;;;;;;;;;;4993143;28;20227;-84
2023/03/16 11:53:07;;;;;;;4.97;3.10;;;;;;;;;;4992848;28;20206;-84
2023/03/16 11:55:40;;;;;;;4.07;3.40;;;;;;;;;;4993138;28;20258;-84
2023/03/16 11:58:19;;;;;;;5.83;3.07;;;;;;;;;;4993424;28;20265;-85
2023/03/16 12:00:52;;;;;;;5.10;3.40;;;;;;;;;;4993365;28;20360;-84
2023/03/16 12:03:28;;;;;;;4.77;2.90;;;;;;;;;;4993213;28;20228;-84
2023/03/16 12:05:59;;;;;;;6.40;2.73;;;;;;;;;;4992942;28;20227;-84
2023/03/16 12:08:42;;;;;;;4.27;2.37;;;;;;;;;;4976886;28;20234;-84
2023/03/16 12:11:13;;;;;;;5.93;2.80;;;;;;;;;;4992781;28;20235;-84
2023/03/16 12:13:51;;;;;;;4.83;2.40;;;;;;;;;;4992954;28;20220;-84
2023/03/16 12:16:22;;;;;;;2.77;2.20;;;;;;;;;;4993085;28;20292;-84
2023/03/16 12:18:54;;;;;;;5.10;2.90;;;;;;;;;;4992788;28;20282;-84
2023/03/16 12:21:25;;;;;;;4.40;3.03;;;;;;;;;;4992417;28;20200;-84
2023/03/16 12:23:54;;;;;;;4.17;2.53;;;;;;;;;;4992909;28;20217;-84
2023/03/16 12:26:25;;;;;;;2.70;2.30;;;;;;;;;;4992797;28;20243;-84
2023/03/16 12:28:58;;;;;;;8.20;2.83;;;;;;;;;;4992361;28;20291;-84
2023/03/16 12:31:31;;;;;;;3.10;2.57;;;;;;;;;;4992639;28;20208;-84
2023/03/16 12:34:08;;;;;;;2.03;1.43;;;;;;;;;;4992306;28;20243;-84
2023/03/16 12:36:54;;;;;;;5.53;2.77;;;;;;;;;;4992806;28;20200;-84
2023/03/16 12:39:33;;;;;;;3.33;2.10;;;;;;;;;;4992509;28;20242;-84
2023/03/16 12:42:08;;;;;;;7.97;2.33;;;;;;;;;;4992785;28;20200;-84
2023/03/16 12:44:39;;;;;;;4.13;1.93;;;;;;;;;;4992334;28;20199;-84
2023/03/16 12:47:11;;;;;;;4.40;2.80;;;;;;;;;;4992410;28;20231;-84
2023/03/16 12:49:42;;;;;;;3.97;1.93;;;;;;;;;;4992381;28;20231;-84
2023/03/16 12:52:11;;;;;;;3.03;2.70;;;;;;;;;;4992758;28;20204;-84
2023/03/16 12:54:50;;;;;;;4.23;2.93;;;;;;;;;;4992194;28;20252;-84
2023/03/16 12:57:19;;;;;;;3.67;3.13;;;;;;;;;;4992231;28;20208;-84
2023/03/16 12:59:50;;;;;;;7.07;3.07;;;;;;;;;;4992328;28;20231;-84
2023/03/16 13:02:21;;;;;;;6.13;3.50;;;;;;;;;;4992367;28;20211;-83
2023/03/16 13:04:57;;;;;;;4.90;2.80;;;;;;;;;;4992356;28;20239;-83
2023/03/16 13:07:27;;;;;;;4.83;2.90;;;;;;;;;;4993369;28;20235;-83
2023/03/16 13:09:57;;;;;;;3.17;2.10;;;;;;;;;;4996580;28;20204;-83
2023/03/16 13:12:27;;;;;;;4.43;2.80;;;;;;;;;;4979348;28;20240;-83
2023/03/16 13:14:56;;;;;;;5.70;2.90;;;;;;;;;;4996150;28;20347;-83
2023/03/16 13:17:26;;;;;;;3.87;2.90;;;;;;;;;;4995879;28;20216;-83
2023/03/16 13:20:15;;;;;;;4.03;3.23;;;;;;;;;;4996374;28;20212;-84
2023/03/16 13:23:20;;;;;;;3.50;2.03;;;;;;;;;;4996206;28;20257;-83
2023/03/16 13:26:00;;;;;;;2.50;1.70;;;;;;;;;;4995893;28;20202;-84
2023/03/16 13:28:30;;;;;;;3.27;2.40;;;;;;;;;;4995810;28;20263;-84
2023/03/16 13:31:01;;;;;;;4.90;2.30;;;;;;;;;;4995546;28;20259;-84
2023/03/16 13:33:31;;;;;;;5.43;2.60;;;;;;;;;;4996100;28;20200;-84
2023/03/16 13:36:01;;;;;;;3.03;2.40;;;;;;;;;;4995558;28;20255;-84
2023/03/16 13:38:31;;;;;;;3.93;2.83;;;;;;;;;;4978451;28;20200;-84
2023/03/16 13:41:04;;;;;;;6.80;3.27;;;;;;;;;;4995699;28;20201;-84
2023/03/16 13:43:36;;;;;;;7.40;2.80;;;;;;;;;;4995768;28;20208;-83
2023/03/16 13:46:14;;;;;;;5.37;2.40;;;;;;;;;;4995469;28;20201;-84
2023/03/16 13:48:43;;;;;;;4.50;1.80;;;;;;;;;;4995166;28;20229;-84
2023/03/16 13:51:15;;;;;;;5.60;2.17;;;;;;;;;;4995547;28;20251;-84
2023/03/16 13:53:45;;;;;;;6.30;2.27;;;;;;;;;;4995878;28;20231;-84
2023/03/16 13:56:15;;;;;;;4.97;2.77;;;;;;;;;;4995467;28;20279;-84
2023/03/16 13:58:45;;;;;;;6.87;2.27;;;;;;;;;;4995791;28;20235;-84
2023/03/16 14:01:17;;;;;;;4.00;2.30;;;;;;;;;;4995501;28;20294;-84
2023/03/16 14:03:47;;;;;;;3.30;2.47;;;;;;;;;;4995209;28;20213;-83
2023/03/16 14:06:24;;;;;;;6.53;2.47;;;;;;;;;;4995229;28;20232;-83
2023/03/16 14:08:55;;;;;;;7.00;2.50;;;;;;;;;;4995475;28;20200;-83
2023/03/16 14:11:23;;;;;;;3.17;2.20;;;;;;;;;;4994811;28;20287;-83
2023/03/16 14:13:53;;;;;;;3.47;2.20;;;;;;;;;;4995265;28;20205;-83
2023/03/16 14:16:24;;;;;;;2.83;2.37;;;;;;;;;;4995060;28;20256;-84
2023/03/16 14:18:54;;;;;;;1.57;1.23;;;;;;;;;;4993984;28;20308;-84
2023/03/16 14:21:24;;;;;;;2.97;2.20;;;;;;;;;;4995017;28;20213;-83
2023/03/16 14:23:55;;;;;;;5.93;3.07;;;;;;;;;;4994962;28;20301;-84
2023/03/16 14:26:23;;;;;;;5.73;2.50;;;;;;;;;;4995061;28;20231;-84
2023/03/16 14:28:57;;;;;;;2.40;1.63;;;;;;;;;;4994651;28;20336;-84
2023/03/16 14:31:32;;;;;;;4.83;2.60;;;;;;;;;;4994676;28;20216;-84
2023/03/16 14:34:02;;;;;;;6.60;2.10;;;;;;;;;;4994908;28;20235;-84
2023/03/16 14:36:39;;;;;;;2.57;1.57;;;;;;;;;;4994501;28;20229;-84
2023/03/16 14:39:13;;;;;;;4.63;1.53;;;;;;;;;;4994673;28;20208;-84
2023/03/16 14:41:42;;;;;;;2.60;1.80;;;;;;;;;;4994548;28;20251;-84
2023/03/16 14:44:18;;;;;;;7.03;2.73;;;;;;;;;;4994445;28;20484;-84
2023/03/16 14:46:46;;;;;;;3.47;2.17;;;;;;;;;;4994333;28;20235;-84
2023/03/16 14:49:20;;;;;;;3.70;2.03;;;;;;;;;;4994212;28;20200;-84
2023/03/16 14:51:51;;;;;;;3.00;2.07;;;;;;;;;;4994499;28;20212;-84
2023/03/16 14:54:22;;;;;;;6.33;3.03;;;;;;;;;;4995024;28;20275;-84
2023/03/16 14:56:52;;;;;;;4.63;1.97;;;;;;;;;;4994136;28;20221;-84
2023/03/16 14:59:20;;;;;;;5.10;1.97;;;;;;;;;;4993900;28;20213;-85
2023/03/16 15:01:49;;;;;;;3.07;1.93;;;;;;;;;;4993990;28;20201;-85